createdAt,value
2023-03-26T00:01:39.023Z,4.63
2023-03-26T00:04:07.469Z,4.47
2023-03-26T00:06:37.602Z,6.78
2023-03-26T00:09:06.337Z,5.40
2023-03-26T00:11:35.165Z,5.10
2023-03-26T00:14:02.770Z,5.20
2023-03-26T00:16:31.317Z,4.55
2023-03-26T00:19:00.010Z,4.50
2023-03-26T00:21:28.993Z,5.50
2023-03-26T00:23:58.573Z,6.38
2023-03-26T00:26:25.532Z,5.60
2023-03-26T00:28:54.674Z,6.45
2023-03-26T00:31:21.748Z,5.50
2023-03-26T00:33:54.308Z,6.00
2023-03-26T00:36:22.195Z,7.00
2023-03-26T00:38:49.107Z,5.80
2023-03-26T00:41:22.792Z,5.72
2023-03-26T00:43:51.505Z,5.68
2023-03-26T00:46:19.977Z,6.40
2023-03-26T00:48:47.252Z,6.25
2023-03-26T00:51:16.014Z,4.65
2023-03-26T00:53:44.108Z,5.07
2023-03-26T00:56:11.879Z,5.18
2023-03-26T00:58:39.006Z,5.57
2023-03-26T01:01:08.055Z,5.35
2023-03-26T01:04:07.321Z,5.25
2023-03-26T01:06:42.324Z,4.88
2023-03-26T01:11:42.496Z,5.15
2023-03-26T01:14:13.325Z,5.28
2023-03-26T01:16:45.239Z,5.50
2023-03-26T01:19:20.770Z,5.22
2023-03-26T01:21:49.377Z,5.47
2023-03-26T01:24:18.129Z,6.15
2023-03-26T01:27:05.002Z,5.78
2023-03-26T01:29:39.440Z,6.10
2023-03-26T01:32:22.217Z,6.07
2023-03-26T01:35:01.177Z,6.28
2023-03-26T01:37:37.445Z,5.22
2023-03-26T01:40:13.257Z,5.95
2023-03-26T01:42:43.950Z,5.30
2023-03-26T01:45:16.086Z,5.68
2023-03-26T01:47:44.661Z,5.53
2023-03-26T01:50:12.461Z,4.50
2023-03-26T01:52:40.444Z,5.60
2023-03-26T01:55:11.953Z,4.90
2023-03-26T01:57:55.037Z,5.88
2023-03-26T02:00:28.982Z,5.68
2023-03-26T02:05:42.730Z,4.60
2023-03-26T02:08:16.914Z,5.22
2023-03-26T02:10:48.912Z,5.20
2023-03-26T02:13:16.898Z,5.60
2023-03-26T02:15:56.080Z,5.28
2023-03-26T02:18:24.430Z,6.03
2023-03-26T02:20:53.210Z,4.78
2023-03-26T02:23:21.307Z,5.53
2023-03-26T02:25:50.209Z,5.57
2023-03-26T02:28:17.617Z,4.95
2023-03-26T02:30:46.120Z,4.93
2023-03-26T02:33:15.615Z,4.43
2023-03-26T02:35:46.125Z,5.00
2023-03-26T02:38:14.820Z,4.13
2023-03-26T02:40:42.204Z,4.72
2023-03-26T02:43:11.203Z,4.65
2023-03-26T02:45:38.465Z,4.35
2023-03-26T02:48:07.292Z,5.28
2023-03-26T02:50:36.957Z,4.15
2023-03-26T02:53:04.276Z,4.07
2023-03-26T02:55:31.792Z,4.93
2023-03-26T02:57:59.451Z,4.43
2023-03-26T03:00:29.169Z,4.90
2023-03-26T03:02:58.146Z,4.63
2023-03-26T03:05:31.568Z,4.72
2023-03-26T03:07:59.855Z,4.75
2023-03-26T03:10:28.894Z,4.60
2023-03-26T03:12:56.244Z,4.43
2023-03-26T03:15:23.460Z,4.05
2023-03-26T03:17:52.430Z,4.38
2023-03-26T03:20:22.273Z,4.53
2023-03-26T03:22:50.202Z,4.00
2023-03-26T03:25:17.640Z,4.50
2023-03-26T03:27:45.391Z,5.18
2023-03-26T03:30:15.468Z,5.05
2023-03-26T03:32:43.063Z,5.18
2023-03-26T03:35:12.643Z,4.35
2023-03-26T03:37:40.365Z,4.30
2023-03-26T03:40:11.304Z,3.72
2023-03-26T03:42:39.536Z,4.47
2023-03-26T03:45:08.373Z,3.95
2023-03-26T03:47:36.545Z,3.83
2023-03-26T03:50:04.743Z,5.43
2023-03-26T03:52:34.346Z,4.50
2023-03-26T03:55:01.555Z,4.88
2023-03-26T03:57:32.197Z,4.50
2023-03-26T03:59:59.649Z,3.83
2023-03-26T04:02:30.598Z,5.00
2023-03-26T04:04:58.353Z,4.72
2023-03-26T04:07:26.790Z,4.57
2023-03-26T04:09:56.458Z,4.15
2023-03-26T04:12:24.169Z,4.80
2023-03-26T04:14:51.390Z,3.75
2023-03-26T04:17:21.976Z,4.15
2023-03-26T04:19:50.446Z,4.50
2023-03-26T04:22:18.620Z,4.55
2023-03-26T04:24:46.196Z,4.38
2023-03-26T04:27:18.058Z,3.55
2023-03-26T04:29:49.871Z,4.38
2023-03-26T04:32:22.765Z,3.92
2023-03-26T04:34:50.483Z,4.63
2023-03-26T04:37:26.740Z,4.97
2023-03-26T04:39:55.378Z,4.10
2023-03-26T04:42:24.220Z,5.32
2023-03-26T04:44:52.869Z,4.82
2023-03-26T04:47:21.440Z,4.68
2023-03-26T04:49:48.965Z,4.70
2023-03-26T04:52:16.478Z,5.68
2023-03-26T04:54:45.183Z,4.27
2023-03-26T04:57:18.103Z,3.50
2023-03-26T06:47:19.769Z,2.08
2023-03-26T06:49:48.187Z,2.55
2023-03-26T06:52:16.348Z,1.73
2023-03-26T06:54:46.417Z,1.55
2023-03-26T06:57:16.153Z,1.60
2023-03-26T06:59:50.179Z,1.92
2023-03-26T07:04:45.769Z,2.00
2023-03-26T07:07:14.794Z,1.95
2023-03-26T07:09:42.940Z,2.00
2023-03-26T07:12:16.488Z,1.33
2023-03-26T07:14:48.204Z,2.53
2023-03-26T07:17:19.455Z,2.08
2023-03-26T07:19:47.749Z,2.33
2023-03-26T07:22:26.514Z,1.98
2023-03-26T07:24:59.243Z,2.22
2023-03-26T07:27:49.425Z,2.42
2023-03-26T07:30:32.262Z,2.60
2023-03-26T07:33:07.112Z,2.65
2023-03-26T07:35:47.493Z,2.70
2023-03-26T07:38:27.527Z,2.33
2023-03-26T07:41:09.018Z,2.08
2023-03-26T07:50:27.982Z,2.03
2023-03-26T07:52:55.534Z,1.85
2023-03-26T07:55:23.127Z,2.22
2023-03-26T07:58:01.350Z,2.47
2023-03-26T08:00:35.039Z,1.95
2023-03-26T08:05:53.335Z,1.98
2023-03-26T08:08:30.813Z,1.38
2023-03-26T08:11:12.119Z,1.95
2023-03-26T08:13:56.241Z,1.85
2023-03-26T08:16:32.081Z,1.92
2023-03-26T08:19:08.016Z,1.98
2023-03-26T08:21:40.628Z,1.88
2023-03-26T08:24:18.416Z,2.00
2023-03-26T08:26:52.773Z,1.80
2023-03-26T08:29:29.283Z,2.15
2023-03-26T08:31:57.583Z,2.13
2023-03-26T08:34:24.724Z,1.83
2023-03-26T08:36:53.625Z,1.90
2023-03-26T08:39:22.429Z,1.85
2023-03-26T08:42:34.442Z,2.22
2023-03-26T08:45:38.924Z,1.90
2023-03-26T08:48:39.670Z,2.47
2023-03-26T09:53:19.657Z,1.85
2023-03-26T09:55:57.469Z,1.98
2023-03-26T09:58:51.899Z,1.58
2023-03-26T10:01:29.401Z,1.48
2023-03-26T10:04:10.608Z,1.40
2023-03-26T10:06:50.333Z,1.67
2023-03-26T10:09:34.702Z,1.25
2023-03-26T10:12:18.863Z,1.98
2023-03-26T10:17:35.923Z,2.35
2023-03-26T10:20:26.524Z,3.35
2023-03-26T10:23:05.093Z,3.58
2023-03-26T10:25:54.402Z,5.30
2023-03-26T10:28:39.729Z,4.78
2023-03-26T10:31:42.880Z,5.88
2023-03-26T10:34:29.662Z,6.85
2023-03-26T10:37:06.905Z,7.72
2023-03-26T10:39:59.555Z,6.50
2023-03-26T10:42:50.680Z,4.68
2023-03-26T10:45:41.172Z,4.38
2023-03-26T10:48:27.903Z,3.58
2023-03-26T10:51:20.457Z,4.20
2023-03-26T10:53:51.145Z,4.53
2023-03-26T10:56:23.490Z,3.95
2023-03-26T10:58:57.287Z,5.03
2023-03-26T11:01:42.065Z,5.35
2023-03-26T11:04:24.461Z,4.63
2023-03-26T11:07:01.805Z,4.03
2023-03-26T11:09:40.951Z,4.00
2023-03-26T11:12:27.168Z,5.00
2023-03-26T11:15:10.706Z,5.72
2023-03-26T11:17:53.839Z,6.60
2023-03-26T11:20:27.569Z,3.55
2023-03-26T11:23:08.156Z,4.03
2023-03-26T11:25:46.251Z,2.67
2023-03-26T11:28:26.880Z,2.40
2023-03-26T11:31:03.157Z,1.80
2023-03-26T11:33:35.193Z,1.75
2023-03-26T11:36:06.111Z,1.30
2023-03-26T11:38:51.189Z,1.45
2023-03-26T11:41:23.292Z,1.77
2023-03-26T11:43:55.630Z,2.33
2023-03-26T11:46:33.628Z,1.92
2023-03-26T11:49:03.542Z,2.42
2023-03-26T11:51:39.752Z,2.75
2023-03-26T11:54:24.363Z,3.03
2023-03-26T11:57:05.293Z,2.63
2023-03-26T12:00:08.150Z,4.25
2023-03-26T12:02:41.250Z,4.13
2023-03-26T12:05:15.608Z,4.35
2023-03-26T12:07:47.052Z,4.78
2023-03-26T12:18:55.390Z,4.82
2023-03-26T12:24:26.021Z,4.90
2023-03-26T12:26:58.295Z,5.30
2023-03-26T12:29:25.486Z,4.80
2023-03-26T12:31:56.242Z,4.22
2023-03-26T12:34:31.783Z,4.10
2023-03-26T12:37:01.902Z,4.47
2023-03-26T12:40:09.885Z,4.93
2023-03-26T12:44:48.102Z,5.18
2023-03-26T12:45:15.227Z,3.78
2023-03-26T12:47:58.716Z,4.32
2023-03-26T12:50:38.169Z,4.35
2023-03-26T12:53:33.565Z,3.60
2023-03-26T12:56:06.967Z,3.92
2023-03-26T12:59:02.631Z,4.13
2023-03-26T13:01:41.245Z,4.05
2023-03-26T13:04:34.249Z,4.07
2023-03-26T13:07:17.120Z,3.63
2023-03-26T13:09:56.731Z,4.15
2023-03-26T13:12:41.573Z,3.38
2023-03-26T13:15:31.217Z,3.10
2023-03-26T13:18:15.386Z,2.80
2023-03-26T13:23:28.778Z,2.45
2023-03-26T13:26:13.988Z,3.00
2023-03-26T13:29:11.476Z,4.03
2023-03-26T13:31:49.656Z,2.85
2023-03-26T13:34:36.689Z,3.30
2023-03-26T13:37:16.136Z,3.13
2023-03-26T13:39:58.195Z,2.78
2023-03-26T13:42:56.566Z,3.15
2023-03-26T13:46:08.154Z,3.10
2023-03-26T13:48:48.098Z,3.05
2023-03-26T13:51:22.420Z,2.83
2023-03-26T13:53:57.545Z,3.25
2023-03-26T13:56:33.678Z,3.15
2023-03-26T13:59:09.134Z,3.28
2023-03-26T14:05:17.513Z,3.00
2023-03-26T14:07:49.240Z,3.10
2023-03-26T14:14:10.390Z,4.32
2023-03-26T14:16:44.446Z,4.35
2023-03-26T14:19:30.921Z,4.95
2023-03-26T14:22:12.575Z,4.78
2023-03-26T14:25:18.894Z,4.38
2023-03-26T14:28:16.373Z,5.10
2023-03-26T14:31:08.240Z,4.97
2023-03-26T14:33:53.797Z,4.38
2023-03-26T14:36:36.986Z,5.38
2023-03-26T14:39:37.225Z,6.67
2023-03-26T14:42:14.541Z,6.63
2023-03-26T14:45:00.372Z,5.95
2023-03-26T14:47:30.603Z,7.32
2023-03-26T14:50:26.764Z,7.05
2023-03-26T14:53:28.338Z,6.75
2023-03-26T14:56:45.672Z,6.60
2023-03-26T14:59:55.498Z,4.93
2023-03-26T15:02:54.347Z,5.60
2023-03-26T15:06:28.588Z,4.88
2023-03-26T15:09:52.572Z,4.95
2023-03-26T15:13:10.559Z,5.43
2023-03-26T15:16:28.104Z,4.65
2023-03-26T15:19:49.634Z,3.30
2023-03-26T15:22:48.762Z,3.20
2023-03-26T15:25:57.250Z,3.85
2023-03-26T15:28:58.841Z,3.28
2023-03-26T15:31:55.640Z,3.15
2023-03-26T15:35:04.229Z,3.83
2023-03-26T15:38:09.684Z,4.40
2023-03-26T15:41:02.347Z,4.95
2023-03-26T15:44:23.971Z,3.85
2023-03-26T15:46:58.616Z,3.38
2023-03-26T15:49:36.134Z,4.00
2023-03-26T15:52:16.088Z,3.35
2023-03-26T15:54:53.596Z,4.22
2023-03-26T15:57:30.666Z,3.17
2023-03-26T16:00:22.832Z,2.78
2023-03-26T16:03:16.455Z,3.30
2023-03-26T16:06:10.537Z,2.92
2023-03-26T16:08:47.163Z,3.55
2023-03-26T16:11:35.991Z,4.43
2023-03-26T16:14:17.441Z,4.80
2023-03-26T16:16:58.656Z,2.80
2023-03-26T16:19:41.195Z,3.22
2023-03-26T16:22:15.489Z,4.00
2023-03-26T16:24:49.348Z,3.42
2023-03-26T16:27:34.261Z,4.38
2023-03-26T16:30:14.753Z,3.35
2023-03-26T16:32:44.419Z,3.33
2023-03-26T16:35:39.133Z,3.10
2023-03-26T16:38:12.914Z,3.53
2023-03-26T16:41:00.133Z,3.33
2023-03-26T16:43:50.423Z,3.25
2023-03-26T16:46:28.694Z,2.60
2023-03-26T16:49:03.365Z,3.42
2023-03-26T16:51:49.967Z,2.10
2023-03-26T16:54:24.688Z,3.22
2023-03-26T16:57:00.029Z,2.13
2023-03-26T17:00:06.783Z,3.03
2023-03-26T17:02:43.555Z,2.72
2023-03-26T17:05:21.755Z,2.50
2023-03-26T17:07:58.344Z,3.20
2023-03-26T17:10:32.010Z,3.15
2023-03-26T17:13:06.469Z,3.08
2023-03-26T17:15:48.412Z,2.88
2023-03-26T17:18:45.723Z,2.83
2023-03-26T17:21:17.963Z,2.38
2023-03-26T17:24:01.892Z,2.60
2023-03-26T17:26:38.659Z,2.83
2023-03-26T17:29:51.693Z,3.45
2023-03-26T17:33:55.766Z,2.03
2023-03-26T17:36:50.390Z,2.60
2023-03-26T17:39:47.887Z,2.15
2023-03-26T17:53:45.182Z,2.50
2023-03-26T18:16:56.390Z,2.13
2023-03-26T18:20:06.084Z,1.92
2023-03-26T18:22:34.184Z,2.80
2023-03-26T18:25:02.668Z,2.47
2023-03-26T19:00:07.285Z,2.07
2023-03-26T19:03:04.954Z,2.10
2023-03-26T19:05:33.720Z,1.67
2023-03-26T19:08:06.451Z,2.72
2023-03-26T19:10:36.855Z,2.73
2023-03-26T19:13:04.423Z,1.93
2023-03-26T19:15:34.636Z,2.20
2023-03-26T19:18:11.748Z,2.85
2023-03-26T19:20:42.617Z,2.07
2023-03-26T19:23:14.898Z,2.60
2023-03-26T19:25:46.142Z,2.67
2023-03-26T19:28:18.010Z,2.17
2023-03-26T19:30:45.079Z,2.67
2023-03-26T19:33:18.442Z,2.47
2023-03-26T19:35:50.888Z,2.60
2023-03-26T19:38:24.786Z,3.17
2023-03-26T19:43:20.091Z,2.60
2023-03-26T19:46:00.416Z,2.00
2023-03-26T19:48:45.580Z,1.88
2023-03-26T19:51:20.376Z,1.87
2023-03-26T19:53:50.179Z,2.47
2023-03-26T19:56:19.585Z,2.57
2023-03-26T19:58:46.867Z,2.13
2023-03-26T20:01:17.725Z,2.07
2023-03-26T20:03:49.246Z,2.47
2023-03-26T20:06:18.927Z,2.87
2023-03-26T20:08:50.645Z,2.28
2023-03-26T20:11:21.436Z,2.35
2023-03-26T20:13:50.109Z,2.40
2023-03-26T20:16:23.815Z,2.20
2023-03-26T20:18:52.298Z,1.88
2023-03-26T20:21:19.661Z,2.00
2023-03-26T20:23:47.275Z,2.33
2023-03-26T20:26:15.816Z,2.70
2023-03-26T20:28:48.263Z,2.30
2023-03-26T20:31:23.411Z,2.00
2023-03-26T20:33:53.168Z,2.23
2023-03-26T20:36:33.819Z,1.93
2023-03-26T20:39:06.022Z,1.47
2023-03-26T20:41:34.714Z,1.40
2023-03-26T20:44:05.067Z,1.90
2023-03-26T20:46:33.363Z,1.53
2023-03-26T20:49:02.004Z,1.43
2023-03-26T20:51:30.645Z,1.93
2023-03-26T20:53:58.107Z,1.47
2023-03-26T20:56:25.365Z,1.90
2023-03-26T20:59:09.606Z,1.47
2023-03-26T21:01:38.385Z,1.70
2023-03-26T21:04:11.935Z,1.90
2023-03-26T21:06:43.870Z,1.98
2023-03-26T21:09:14.945Z,2.03
2023-03-26T21:11:52.789Z,2.10
2023-03-26T21:14:24.119Z,1.97
2023-03-26T21:16:52.071Z,2.07
2023-03-26T21:19:21.124Z,2.10
2023-03-26T21:21:57.710Z,1.90
2023-03-26T21:24:35.045Z,2.20
2023-03-26T21:27:12.801Z,1.67
2023-03-26T21:29:41.033Z,1.77
2023-03-26T21:32:10.643Z,2.63
2023-03-26T21:34:47.876Z,1.30
2023-03-26T21:37:23.494Z,1.77
2023-03-26T21:39:51.535Z,1.90
2023-03-26T21:42:19.272Z,2.43
2023-03-26T21:44:47.004Z,1.60
2023-03-26T21:47:14.999Z,1.63
2023-03-26T21:49:43.937Z,1.50
2023-03-26T21:52:15.132Z,1.57
2023-03-26T21:54:43.413Z,1.30
2023-03-26T21:57:25.928Z,2.07
2023-03-26T22:00:07.160Z,1.80
2023-03-26T22:02:42.358Z,2.10
2023-03-26T22:05:15.397Z,1.63
2023-03-26T22:07:52.832Z,1.53
2023-03-26T22:10:20.044Z,1.17
2023-03-26T22:12:46.982Z,1.07
2023-03-26T22:15:14.233Z,1.27
2023-03-26T22:17:41.869Z,1.37
2023-03-26T22:20:12.772Z,1.50
2023-03-26T22:22:41.633Z,1.27
2023-03-26T22:25:10.523Z,1.70
2023-03-26T22:27:44.931Z,2.10
2023-03-26T22:30:13.879Z,2.07
2023-03-26T22:32:41.532Z,2.40
2023-03-26T22:35:09.178Z,2.67
2023-03-26T22:37:37.941Z,1.83
2023-03-26T22:40:08.446Z,1.73
2023-03-26T22:42:35.859Z,1.50
2023-03-26T22:45:03.015Z,3.20
2023-03-26T22:47:30.745Z,2.80
2023-03-26T22:49:57.829Z,1.88
2023-03-26T22:52:24.841Z,2.23
2023-03-26T22:54:53.350Z,1.87
2023-03-26T22:57:22.036Z,2.07
2023-03-26T22:59:49.113Z,2.20
2023-03-26T23:02:16.735Z,1.93
2023-03-26T23:04:44.302Z,1.40
2023-03-26T23:07:11.499Z,1.88
2023-03-26T23:09:38.543Z,1.88
2023-03-26T23:12:07.834Z,2.00
2023-03-26T23:14:34.851Z,1.83
2023-03-26T23:17:02.090Z,2.17
2023-03-26T23:19:30.173Z,2.10
2023-03-26T23:21:57.584Z,1.97
2023-03-26T23:24:26.571Z,1.93
2023-03-26T23:26:53.708Z,1.43
2023-03-26T23:29:22.075Z,2.20
2023-03-26T23:31:49.343Z,2.23
2023-03-26T23:34:17.214Z,1.35
2023-03-26T23:36:44.876Z,1.90
2023-03-26T23:39:11.951Z,2.67
2023-03-26T23:41:38.929Z,2.60
2023-03-26T23:44:06.061Z,2.67
2023-03-26T23:46:34.814Z,2.10
2023-03-26T23:49:03.621Z,2.47
2023-03-26T23:51:31.111Z,2.40
2023-03-26T23:53:59.716Z,2.10
2023-03-26T23:56:30.293Z,1.67
2023-03-26T23:58:58.312Z,1.50
